createdAt,value
2019-04-11T00:04:48.829Z,75.40
2019-04-11T00:11:26.020Z,75.40
2019-04-11T00:13:57.795Z,75.50
2019-04-11T00:16:28.947Z,75.10
2019-04-11T00:18:59.289Z,75.10
2019-04-11T00:21:30.629Z,75.30
2019-04-11T00:24:01.229Z,75.10
2019-04-11T00:26:32.602Z,75.00
2019-04-11T00:29:03.942Z,75.60
2019-04-11T00:31:34.305Z,75.40
2019-04-11T00:34:04.798Z,75.30
2019-04-11T00:36:35.015Z,75.50
2019-04-11T00:39:09.248Z,75.70
2019-04-11T00:41:39.774Z,75.00
2019-04-11T00:44:10.413Z,75.30
2019-04-11T00:46:40.740Z,75.00
2019-04-11T00:49:11.026Z,75.00
2019-04-11T00:51:42.343Z,75.00
2019-04-11T00:54:12.568Z,75.00
2019-04-11T00:56:42.921Z,75.50
2019-04-11T00:59:14.435Z,75.60
2019-04-11T01:01:44.990Z,75.90
2019-04-11T01:04:15.872Z,75.90
2019-04-11T01:06:46.711Z,76.10
2019-04-11T01:09:18.002Z,75.60
2019-04-11T01:11:48.409Z,75.50
2019-04-11T01:14:19.815Z,75.80
2019-04-11T01:16:52.711Z,75.40
2019-04-11T01:19:25.178Z,75.70
2019-04-11T01:21:57.920Z,76.00
2019-04-11T01:24:29.147Z,76.40
2019-04-11T01:27:01.474Z,76.70
2019-04-11T01:29:33.561Z,76.90
2019-04-11T01:32:06.666Z,76.20
2019-04-11T01:34:37.602Z,76.80
2019-04-11T01:37:07.875Z,77.50
2019-04-11T01:39:43.396Z,76.80
2019-04-11T01:42:16.157Z,77.00
2019-04-11T01:44:47.431Z,77.00
2019-04-11T01:47:20.486Z,77.60
2019-04-11T01:49:50.842Z,77.50
2019-04-11T01:52:22.450Z,77.70
2019-04-11T01:54:52.834Z,78.20
2019-04-11T01:57:23.111Z,78.10
2019-04-11T01:59:53.458Z,78.60
2019-04-11T02:02:26.426Z,78.80
2019-04-11T02:05:01.231Z,78.80
2019-04-11T02:07:31.768Z,78.30
2019-04-11T02:10:02.516Z,78.40
2019-04-11T02:12:33.143Z,78.60
2019-04-11T02:15:04.369Z,78.80
2019-04-11T02:17:34.947Z,78.60
2019-04-11T02:20:09.153Z,78.50
2019-04-11T02:22:44.026Z,78.80
2019-04-11T02:25:28.328Z,79.70
2019-04-11T02:28:00.466Z,78.70
2019-04-11T02:30:31.381Z,79.00
2019-04-11T02:33:02.009Z,79.00
2019-04-11T02:35:32.638Z,79.20
2019-04-11T02:38:03.041Z,79.20
2019-04-11T02:40:33.378Z,79.60
2019-04-11T02:43:04.983Z,79.60
2019-04-11T02:45:45.219Z,79.50
2019-04-11T02:48:11.186Z,79.60
2019-04-11T02:50:41.478Z,79.20
2019-04-11T02:53:14.652Z,78.80
2019-04-11T02:55:46.551Z,78.60
2019-04-11T02:58:18.664Z,79.00
2019-04-11T03:00:50.388Z,78.90
2019-04-11T03:03:23.230Z,79.20
2019-04-11T03:05:55.393Z,79.50
2019-04-11T03:08:26.785Z,79.70
2019-04-11T03:10:59.388Z,79.90
2019-04-11T03:13:29.856Z,79.80
2019-04-11T03:16:18.787Z,80.10
2019-04-11T03:18:53.050Z,79.90
2019-04-11T03:21:12.838Z,80.30
2019-04-11T03:23:37.566Z,80.30
2019-04-11T03:26:10.289Z,80.30
2019-04-11T03:28:46.266Z,80.10
2019-04-11T03:31:50.278Z,80.20
2019-04-11T03:37:06.683Z,80.90
2019-04-11T03:39:11.802Z,81.10
2019-04-11T03:41:38.460Z,81.30
2019-04-11T03:44:03.935Z,80.60
2019-04-11T03:46:43.419Z,80.30
2019-04-11T03:49:06.353Z,80.70
2019-04-11T03:51:33.984Z,81.10
2019-04-11T03:54:05.100Z,81.80
2019-04-11T03:56:37.221Z,81.10
2019-04-11T03:59:10.302Z,80.80
2019-04-11T04:01:39.988Z,80.90
2019-04-11T04:04:11.287Z,80.60
2019-04-11T04:06:45.834Z,81.10
2019-04-11T04:09:17.100Z,80.90
2019-04-11T04:11:50.775Z,80.70
2019-04-11T04:14:36.958Z,81.10
2019-04-11T04:17:27.781Z,81.20
2019-04-11T04:20:02.056Z,80.50
2019-04-11T04:22:42.115Z,80.50
2019-04-11T04:25:14.297Z,80.40
2019-04-11T04:27:45.100Z,80.80
2019-04-11T04:30:17.623Z,81.30
2019-04-11T04:32:49.276Z,80.80
2019-04-11T04:35:22.131Z,80.30
2019-04-11T04:37:52.121Z,79.80
2019-04-11T04:40:35.566Z,80.40
2019-04-11T04:42:56.732Z,79.80
2019-04-11T04:45:27.717Z,80.30
2019-04-11T04:48:03.444Z,80.10
2019-04-11T04:50:30.945Z,80.50
2019-04-11T04:53:02.746Z,80.30
2019-04-11T04:55:34.636Z,80.60
2019-04-11T04:58:05.177Z,80.70
2019-04-11T05:00:37.661Z,80.90
2019-04-11T05:03:09.867Z,81.20
2019-04-11T05:05:42.418Z,81.50
2019-04-11T05:08:14.372Z,81.20
2019-04-11T05:10:46.977Z,81.50
2019-04-11T05:13:17.393Z,81.10
2019-04-11T05:15:48.982Z,80.60
2019-04-11T05:18:20.643Z,81.00
2019-04-11T05:20:52.651Z,81.70
2019-04-11T05:23:23.559Z,81.50
2019-04-11T05:25:55.020Z,81.30
2019-04-11T05:28:27.707Z,81.40
2019-04-11T05:30:58.358Z,81.50
2019-04-11T05:33:29.402Z,81.50
2019-04-11T05:36:00.500Z,81.90
2019-04-11T05:38:31.011Z,81.50
2019-04-11T05:41:02.137Z,81.90
2019-04-11T05:43:37.315Z,81.40
2019-04-11T05:46:21.888Z,80.90
2019-04-11T05:48:45.229Z,80.10
2019-04-11T05:51:19.593Z,80.50
2019-04-11T05:53:49.716Z,81.80
2019-04-11T05:56:21.799Z,80.60
2019-04-11T05:58:53.688Z,80.90
2019-04-11T06:01:31.316Z,79.80
2019-04-11T06:04:06.217Z,80.10
2019-04-11T06:06:40.190Z,81.00
2019-04-11T06:09:16.318Z,80.30
2019-04-11T06:11:56.472Z,81.20
2019-04-11T06:14:31.240Z,80.30
2019-04-11T06:17:03.231Z,80.00
2019-04-11T06:19:48.001Z,79.80
2019-04-11T06:22:19.827Z,80.30
2019-04-11T06:24:54.492Z,80.00
2019-04-11T06:27:30.373Z,80.50
2019-04-11T06:30:09.555Z,78.80
2019-04-11T06:32:58.367Z,78.50
2019-04-11T06:35:46.564Z,77.30
2019-04-11T06:38:24.695Z,78.10
2019-04-11T06:41:02.572Z,78.40
2019-04-11T06:43:40.705Z,76.40
2019-04-11T06:46:13.232Z,77.70
2019-04-11T06:49:02.406Z,77.20
2019-04-11T06:51:35.722Z,76.60
2019-04-11T06:54:19.486Z,71.80
2019-04-11T06:56:52.095Z,73.80
2019-04-11T06:59:24.235Z,70.90
2019-04-11T07:02:07.513Z,70.80
2019-04-11T07:04:38.489Z,72.10
2019-04-11T07:07:11.066Z,71.30
2019-04-11T07:09:43.373Z,71.30
2019-04-11T07:12:15.580Z,69.50
2019-04-11T07:14:47.652Z,69.20
2019-04-11T07:17:36.978Z,67.80
2019-04-11T07:20:10.819Z,66.50
2019-04-11T07:22:59.534Z,68.10
2019-04-11T07:25:47.699Z,67.20
2019-04-11T07:28:35.775Z,67.80
2019-04-11T07:31:07.726Z,64.50
2019-04-11T07:33:49.344Z,66.60
2019-04-11T07:36:38.390Z,66.70
2019-04-11T07:39:12.712Z,64.70
2019-04-11T07:41:45.530Z,65.50
2019-04-11T07:44:17.800Z,67.30
2019-04-11T07:46:58.701Z,64.50
2019-04-11T07:49:42.865Z,65.40
2019-04-11T07:52:15.542Z,66.10
2019-04-11T07:54:45.936Z,66.00
2019-04-11T07:57:20.640Z,64.30
2019-04-11T08:00:05.986Z,65.30
2019-04-11T08:02:57.212Z,64.10
2019-04-11T08:05:46.718Z,63.20
2019-04-11T08:08:21.500Z,64.70
2019-04-11T08:10:56.699Z,62.60
2019-04-11T08:13:28.621Z,63.30
2019-04-11T08:16:17.970Z,64.10
2019-04-11T08:18:50.932Z,64.90
2019-04-11T08:21:38.899Z,64.30
2019-04-11T08:24:11.998Z,63.20
2019-04-11T08:26:46.884Z,61.50
2019-04-11T08:29:18.538Z,61.70
2019-04-11T08:32:09.513Z,59.30
2019-04-11T08:34:41.815Z,56.60
2019-04-11T08:37:29.704Z,55.70
2019-04-11T08:40:00.008Z,54.60
2019-04-11T08:42:40.918Z,56.30
2019-04-11T08:45:13.080Z,57.30
2019-04-11T08:47:49.249Z,58.00
2019-04-11T08:50:18.594Z,56.00
2019-04-11T08:53:00.327Z,55.60
2019-04-11T08:55:44.593Z,57.80
2019-04-11T08:58:06.615Z,56.80
2019-04-11T09:00:40.185Z,55.60
2019-04-11T09:03:21.761Z,55.60
2019-04-11T09:05:56.880Z,56.80
2019-04-11T09:08:34.262Z,54.90
2019-04-11T09:11:06.766Z,53.10
2019-04-11T09:13:39.718Z,52.40
2019-04-11T09:16:15.229Z,52.30
2019-04-11T09:18:46.115Z,51.40
2019-04-11T09:21:34.152Z,52.20
2019-04-11T09:24:06.212Z,50.50
2019-04-11T09:26:54.111Z,50.20
2019-04-11T09:29:26.175Z,52.50
2019-04-11T09:32:14.259Z,53.60
2019-04-11T09:34:46.216Z,50.60
2019-04-11T09:37:18.780Z,49.90
2019-04-11T09:39:51.177Z,49.90
2019-04-11T09:42:30.296Z,52.10
2019-04-11T09:45:03.462Z,52.40
2019-04-11T09:47:51.984Z,50.60
2019-04-11T09:50:26.695Z,51.00
2019-04-11T09:52:58.809Z,51.50
2019-04-11T09:55:37.497Z,49.80
2019-04-11T09:58:09.504Z,51.00
2019-04-11T10:00:57.619Z,50.70
2019-04-11T10:03:29.802Z,50.70
2019-04-11T10:06:16.802Z,51.20
2019-04-11T10:08:49.097Z,49.90
2019-04-11T10:11:36.322Z,52.00
2019-04-11T10:14:11.350Z,51.30
2019-04-11T10:17:00.254Z,50.10
2019-04-11T10:19:38.255Z,51.00
2019-04-11T10:22:27.058Z,47.60
2019-04-11T10:24:59.043Z,48.20
2019-04-11T10:27:34.080Z,47.30
2019-04-11T10:30:10.294Z,49.40
2019-04-11T10:32:43.369Z,48.60
2019-04-11T10:35:34.461Z,48.80
2019-04-11T10:38:06.834Z,49.70
2019-04-11T10:40:55.211Z,48.20
2019-04-11T10:43:26.549Z,45.80
2019-04-11T10:46:01.366Z,46.20
2019-04-11T10:48:39.331Z,46.10
2019-04-11T10:51:06.954Z,46.80
2019-04-11T10:53:37.483Z,44.40
2019-04-11T10:56:12.393Z,44.50
2019-04-11T10:58:47.086Z,45.90
2019-04-11T11:01:21.958Z,45.70
2019-04-11T11:04:07.378Z,46.60
2019-04-11T11:06:37.960Z,46.20
2019-04-11T11:09:26.208Z,44.90
2019-04-11T11:12:13.336Z,43.20
2019-04-11T11:14:56.952Z,46.00
2019-04-11T11:18:11.648Z,43.70
2019-04-11T11:20:39.337Z,44.00
2019-04-11T11:23:24.696Z,43.20
2019-04-11T11:26:02.803Z,44.10
2019-04-11T11:28:34.809Z,46.00
2019-04-11T11:31:07.428Z,41.80
2019-04-11T11:33:38.606Z,43.20
2019-04-11T11:36:13.395Z,43.40
2019-04-11T11:38:48.124Z,41.90
2019-04-11T11:41:36.510Z,41.70
2019-04-11T11:44:09.529Z,41.80
2019-04-11T11:46:44.674Z,42.40
2019-04-11T11:49:19.168Z,43.80
2019-04-11T11:51:49.770Z,41.00
2019-04-11T11:54:22.121Z,41.30
2019-04-11T11:56:52.411Z,41.80
2019-04-11T11:59:25.114Z,41.90
2019-04-11T12:02:06.441Z,42.10
2019-04-11T12:04:42.230Z,40.60
2019-04-11T12:07:16.972Z,42.70
2019-04-11T12:10:04.970Z,41.90
2019-04-11T12:12:46.439Z,41.30
2019-04-11T12:15:30.510Z,41.60
2019-04-11T12:18:11.113Z,40.90
2019-04-11T12:20:59.277Z,40.20
2019-04-11T12:23:46.610Z,42.40
2019-04-11T12:26:10.949Z,41.40
2019-04-11T12:28:54.200Z,40.60
2019-04-11T12:31:32.107Z,41.50
2019-04-11T12:34:18.663Z,41.60
2019-04-11T12:36:50.915Z,42.50
2019-04-11T12:39:39.200Z,42.30
2019-04-11T12:42:11.130Z,42.60
2019-04-11T12:44:59.655Z,43.00
2019-04-11T12:47:32.080Z,42.90
2019-04-11T12:50:20.090Z,41.80
2019-04-11T12:52:57.737Z,43.00
2019-04-11T12:55:45.748Z,40.60
2019-04-11T12:58:20.732Z,43.70
2019-04-11T13:00:52.664Z,42.70
2019-04-11T13:03:24.593Z,42.40
2019-04-11T13:05:56.537Z,41.30
2019-04-11T13:08:46.934Z,41.30
2019-04-11T13:11:18.857Z,44.10
2019-04-11T13:13:56.453Z,42.70
2019-04-11T13:16:28.108Z,43.60
2019-04-11T13:19:17.934Z,43.70
2019-04-11T13:21:52.582Z,40.50
2019-04-11T13:24:27.014Z,40.90
2019-04-11T13:27:04.775Z,40.70
2019-04-11T13:29:45.650Z,40.90
2019-04-11T13:32:35.729Z,42.40
2019-04-11T13:35:09.887Z,42.40
2019-04-11T13:37:56.390Z,42.90
2019-04-11T13:40:31.210Z,41.20
2019-04-11T13:43:19.055Z,39.80
2019-04-11T13:45:50.993Z,40.80
2019-04-11T13:48:38.899Z,39.30
2019-04-11T13:51:28.801Z,41.20
2019-04-11T13:54:06.837Z,39.30
2019-04-11T13:56:54.742Z,42.30
2019-04-11T13:59:32.785Z,42.30
2019-04-11T14:02:16.889Z,40.20
2019-04-11T14:05:03.610Z,42.80
2019-04-11T14:07:34.079Z,40.30
2019-04-11T14:10:07.127Z,41.00
2019-04-11T14:12:38.529Z,41.80
2019-04-11T14:15:11.062Z,39.80
2019-04-11T14:17:59.545Z,41.00
2019-04-11T14:20:31.539Z,41.40
2019-04-11T14:23:03.556Z,40.70
2019-04-11T14:25:52.413Z,40.90
2019-04-11T14:28:24.478Z,41.60
2019-04-11T14:30:58.964Z,39.70
2019-04-11T14:33:30.899Z,41.00
2019-04-11T14:36:05.347Z,41.50
2019-04-11T14:38:45.410Z,40.50
2019-04-11T14:41:19.339Z,40.00
2019-04-11T14:43:54.148Z,39.90
2019-04-11T14:46:44.371Z,40.20
2019-04-11T14:49:14.725Z,41.80
2019-04-11T14:51:46.862Z,40.40
2019-04-11T14:54:18.724Z,48.10
2019-04-11T14:56:52.419Z,41.10
2019-04-11T14:59:24.970Z,41.30
2019-04-11T15:01:56.947Z,40.80
2019-04-11T15:04:43.641Z,42.20
2019-04-11T15:07:15.627Z,50.40
2019-04-11T15:09:50.310Z,40.80
2019-04-11T15:12:27.394Z,43.50
2019-04-11T15:14:59.184Z,40.90
2019-04-11T15:17:33.679Z,40.40
2019-04-11T15:20:13.303Z,40.60
2019-04-11T15:22:47.807Z,41.90
2019-04-11T15:25:25.567Z,40.70
2019-04-11T15:28:03.520Z,50.40
2019-04-11T15:30:35.457Z,40.70
2019-04-11T15:33:23.503Z,40.10
2019-04-11T15:35:57.669Z,40.90
2019-04-11T15:38:34.803Z,42.80
2019-04-11T15:41:06.732Z,41.50
2019-04-11T15:43:54.957Z,41.50
2019-04-11T15:46:26.884Z,43.00
2019-04-11T15:49:21.270Z,44.40
2019-04-11T15:51:48.725Z,46.10
2019-04-11T15:54:37.254Z,40.70
2019-04-11T15:57:12.231Z,41.20
2019-04-11T15:59:44.031Z,41.30
2019-04-11T16:02:18.980Z,41.00
2019-04-11T16:05:02.878Z,40.40
2019-04-11T16:07:37.371Z,41.20
2019-04-11T16:10:11.718Z,41.10
2019-04-11T16:12:57.094Z,41.50
2019-04-11T16:15:37.969Z,41.10
2019-04-11T16:18:15.982Z,42.60
2019-04-11T16:20:50.697Z,44.50
2019-04-11T16:23:28.018Z,45.00
2019-04-11T16:25:58.296Z,42.30
2019-04-11T16:28:42.119Z,42.40
2019-04-11T16:31:12.395Z,41.20
2019-04-11T16:33:46.162Z,42.70
2019-04-11T16:36:17.941Z,43.30
2019-04-11T16:39:05.163Z,42.00
2019-04-11T16:41:49.093Z,43.00
2019-04-11T16:44:25.144Z,42.40
2019-04-11T16:47:08.308Z,45.10
2019-04-11T16:49:38.279Z,42.60
2019-04-11T16:52:08.637Z,43.00
2019-04-11T16:54:39.926Z,44.10
2019-04-11T16:57:13.561Z,42.50
2019-04-11T16:59:42.659Z,43.10
2019-04-11T17:02:12.937Z,43.00
2019-04-11T17:04:43.215Z,43.40
2019-04-11T17:07:15.144Z,46.40
2019-04-11T17:09:49.749Z,47.40
2019-04-11T17:12:20.031Z,42.90
2019-04-11T17:14:50.316Z,44.30
2019-04-11T17:17:20.599Z,44.70
2019-04-11T17:19:51.217Z,44.20
2019-04-11T17:22:21.504Z,44.60
2019-04-11T17:24:51.779Z,44.90
2019-04-11T17:27:23.190Z,45.70
2019-04-11T17:29:55.406Z,46.40
2019-04-11T17:32:26.626Z,46.60
2019-04-11T17:34:56.956Z,47.60
2019-04-11T17:37:27.264Z,48.50
2019-04-11T17:39:57.550Z,54.10
2019-04-11T17:42:27.853Z,49.10
2019-04-11T17:44:58.137Z,48.90
2019-04-11T17:47:28.418Z,47.40
2019-04-11T17:49:59.655Z,47.50
2019-04-11T17:52:29.982Z,51.20
2019-04-11T17:55:00.361Z,52.10
2019-04-11T17:57:30.636Z,49.50
2019-04-11T18:00:00.916Z,48.10
2019-04-11T18:02:31.207Z,51.00
2019-04-11T18:05:01.492Z,49.90
2019-04-11T18:07:31.773Z,49.10
2019-04-11T18:10:03.337Z,50.50
2019-04-11T18:12:34.612Z,49.50
2019-04-11T18:15:08.753Z,49.70
2019-04-11T18:17:40.815Z,50.40
2019-04-11T18:20:11.769Z,50.40
2019-04-11T18:22:43.717Z,50.70
2019-04-11T18:25:16.455Z,51.60
2019-04-11T18:27:51.646Z,51.90
2019-04-11T18:30:23.289Z,52.40
2019-04-11T18:32:52.905Z,52.60
2019-04-11T18:35:23.190Z,53.20
2019-04-11T18:37:53.966Z,53.30
2019-04-11T18:40:24.306Z,53.40
2019-04-11T18:42:54.586Z,53.80
2019-04-11T18:45:24.984Z,54.10
2019-04-11T18:47:55.264Z,54.60
2019-04-11T18:50:25.614Z,55.20
2019-04-11T18:52:59.304Z,56.10
2019-04-11T18:55:27.970Z,55.70
2019-04-11T18:57:58.236Z,55.90
2019-04-11T19:00:29.182Z,56.80
2019-04-11T19:03:00.208Z,56.80
2019-04-11T19:05:31.609Z,57.30
2019-04-11T19:08:01.881Z,57.70
2019-04-11T19:10:32.886Z,58.30
2019-04-11T19:13:03.373Z,58.60
2019-04-11T19:15:33.649Z,58.80
2019-04-11T19:18:06.566Z,59.00
2019-04-11T19:20:36.192Z,59.40
2019-04-11T19:23:07.919Z,60.10
2019-04-11T19:25:44.343Z,60.80
2019-04-11T19:28:11.561Z,61.10
2019-04-11T19:30:42.624Z,61.30
2019-04-11T19:33:12.989Z,61.40
2019-04-11T19:35:43.554Z,61.60
2019-04-11T19:38:27.718Z,61.90
2019-04-11T19:40:58.006Z,62.60
2019-04-11T19:43:28.343Z,63.50
2019-04-11T19:45:58.883Z,63.40
2019-04-11T19:48:29.221Z,63.00
2019-04-11T19:51:00.596Z,62.90
2019-04-11T19:53:33.024Z,63.10
2019-04-11T19:56:13.279Z,63.40
2019-04-11T19:58:43.524Z,63.10
2019-04-11T20:01:14.146Z,63.20
2019-04-11T20:03:44.431Z,63.70
2019-04-11T20:06:14.677Z,64.00
2019-04-11T20:08:44.949Z,63.20
2019-04-11T20:11:15.283Z,63.50
2019-04-11T20:13:45.564Z,63.80
2019-04-11T20:16:15.836Z,64.50
2019-04-11T20:18:51.282Z,64.80
2019-04-11T20:21:18.085Z,64.70
2019-04-11T20:23:48.354Z,64.40
2019-04-11T20:26:20.944Z,63.60
2019-04-11T20:28:51.572Z,63.60
2019-04-11T20:31:22.017Z,64.20
2019-04-11T20:33:52.282Z,63.10
2019-04-11T20:36:32.923Z,62.90
2019-04-11T20:38:54.765Z,63.10
2019-04-11T20:41:25.214Z,63.00
2019-04-11T20:43:56.944Z,63.50
2019-04-11T20:46:29.126Z,64.20
2019-04-11T20:48:59.746Z,64.10
2019-04-11T20:51:30.014Z,64.20
2019-04-11T20:54:00.592Z,64.00
2019-04-11T20:56:30.864Z,64.40
2019-04-11T20:59:01.127Z,64.80
2019-04-11T21:01:32.414Z,64.90
2019-04-11T21:04:04.664Z,65.00
2019-04-11T21:06:34.687Z,65.10
2019-04-11T21:09:08.142Z,65.10
2019-04-11T21:11:38.475Z,65.20
2019-04-11T21:14:08.744Z,65.00
2019-04-11T21:16:39.956Z,66.10
2019-04-11T21:19:10.249Z,65.20
2019-04-11T21:21:40.578Z,64.70
2019-04-11T21:24:10.873Z,64.90
2019-04-11T21:26:41.133Z,65.90
2019-04-11T21:29:11.422Z,64.70
2019-04-11T21:31:41.699Z,65.00
2019-04-11T21:34:11.986Z,65.00
2019-04-11T21:36:42.257Z,65.00
2019-04-11T21:39:12.536Z,65.40
2019-04-11T21:41:45.254Z,65.00
2019-04-11T21:44:14.843Z,64.70
2019-04-11T21:46:45.108Z,64.60
2019-04-11T21:49:15.374Z,64.70
2019-04-11T21:51:45.660Z,64.80
2019-04-11T21:54:15.918Z,64.60
2019-04-11T21:56:49.318Z,64.80
2019-04-11T21:59:20.426Z,64.50
2019-04-11T22:01:54.219Z,65.30
2019-04-11T22:04:26.901Z,65.10
2019-04-11T22:06:56.329Z,65.10
2019-04-11T22:09:26.608Z,65.20
2019-04-11T22:11:56.963Z,65.20
2019-04-11T22:14:27.235Z,65.50
2019-04-11T22:16:57.512Z,65.50
2019-04-11T22:19:27.787Z,65.50
2019-04-11T22:21:59.982Z,66.00
2019-04-11T22:24:30.256Z,67.10
2019-04-11T22:27:00.529Z,66.00
2019-04-11T22:29:30.796Z,65.80
2019-04-11T22:32:01.382Z,66.30
2019-04-11T22:34:36.143Z,66.40
2019-04-11T22:37:07.378Z,65.80
2019-04-11T22:39:37.653Z,66.40
2019-04-11T22:42:08.060Z,66.20
2019-04-11T22:44:38.685Z,67.40
2019-04-11T22:47:08.986Z,68.20
2019-04-11T22:49:39.990Z,67.90
2019-04-11T22:52:11.410Z,67.50
2019-04-11T22:54:42.796Z,68.00
2019-04-11T22:57:13.060Z,68.60
2019-04-11T22:59:45.067Z,67.50
2019-04-11T23:02:18.281Z,67.40
2019-04-11T23:04:49.248Z,68.20
2019-04-11T23:07:19.517Z,68.70
2019-04-11T23:09:49.818Z,67.50
2019-04-11T23:12:20.091Z,67.90
2019-04-11T23:14:50.364Z,67.70
2019-04-11T23:17:20.636Z,68.50
2019-04-11T23:19:50.931Z,68.40
2019-04-11T23:22:21.202Z,69.00
2019-04-11T23:24:51.464Z,68.40
2019-04-11T23:27:21.737Z,67.90
2019-04-11T23:29:52.445Z,68.30
2019-04-11T23:32:22.791Z,68.30
2019-04-11T23:34:53.382Z,68.40
2019-04-11T23:37:23.708Z,68.20
2019-04-11T23:39:53.972Z,67.90
2019-04-11T23:42:24.264Z,68.30
2019-04-11T23:44:54.528Z,67.70
2019-04-11T23:47:24.827Z,67.60
2019-04-11T23:49:56.057Z,68.60
2019-04-11T23:52:27.411Z,68.20
2019-04-11T23:54:58.293Z,68.90
2019-04-11T23:57:31.210Z,68.10
